Time;durP1;ratioP1;P1;durP2;ratioP2;P2;SDS_P1;SDS_P2;PMS_P1;PMS_P2;Temp;Humidity;BMP_temperature;BMP_pressure;BME280_temperature;BME280_humidity;BME280_pressure;Samples;Min_cycle;Max_cycle;Signal;HPM_P1;HPM_P2
2022/03/03 00:00:06;;;;;;;21.70;13.18;;;;;;;;;;5010345;28;20109;-65
2022/03/03 00:02:31;;;;;;;22.25;12.93;;;;;;;;;;5010511;28;20060;-64
2022/03/03 00:04:57;;;;;;;23.05;13.15;;;;;;;;;;5010595;28;20033;-64
2022/03/03 00:07:22;;;;;;;21.30;12.80;;;;;;;;;;5010348;28;20037;-64
2022/03/03 00:09:48;;;;;;;23.75;12.35;;;;;;;;;;5010738;28;20032;-64
2022/03/03 00:12:13;;;;;;;20.52;11.23;;;;;;;;;;5010554;28;20033;-64
2022/03/03 00:14:39;;;;;;;21.90;11.77;;;;;;;;;;5010448;28;20026;-64
2022/03/03 00:17:04;;;;;;;19.55;11.27;;;;;;;;;;5010049;28;20690;-64
2022/03/03 00:19:30;;;;;;;18.55;10.88;;;;;;;;;;5010385;28;20077;-64
2022/03/03 00:21:55;;;;;;;20.20;10.48;;;;;;;;;;5010457;28;20052;-64
2022/03/03 00:24:20;;;;;;;21.58;11.00;;;;;;;;;;5010341;28;20026;-65
2022/03/03 00:26:46;;;;;;;22.33;10.73;;;;;;;;;;5010336;28;20030;-65
2022/03/03 00:29:11;;;;;;;18.23;10.20;;;;;;;;;;5010461;28;20105;-64
2022/03/03 00:31:37;;;;;;;17.02;10.63;;;;;;;;;;5010194;28;20022;-64
2022/03/03 00:34:02;;;;;;;17.90;10.07;;;;;;;;;;5012364;28;20562;-65
2022/03/03 00:36:28;;;;;;;16.73;10.07;;;;;;;;;;5013627;28;20037;-65
2022/03/03 00:38:53;;;;;;;18.30;10.55;;;;;;;;;;5014228;28;20101;-65
2022/03/03 00:41:19;;;;;;;17.55;10.45;;;;;;;;;;5014040;28;20029;-65
2022/03/03 00:43:45;;;;;;;22.10;10.23;;;;;;;;;;5014205;28;20034;-65
2022/03/03 00:46:10;;;;;;;17.17;9.82;;;;;;;;;;5013812;28;20037;-65
2022/03/03 00:48:36;;;;;;;17.90;9.85;;;;;;;;;;5013673;28;20033;-65
2022/03/03 00:51:06;;;;;;;20.70;10.13;;;;;;;;;;5013656;28;20025;-65
2022/03/03 00:53:35;;;;;;;19.38;10.48;;;;;;;;;;5013730;28;20069;-64
2022/03/03 00:56:01;;;;;;;18.05;9.88;;;;;;;;;;5013478;28;20042;-64
2022/03/03 00:58:26;;;;;;;19.42;9.75;;;;;;;;;;5013546;28;20033;-65
2022/03/03 01:00:52;;;;;;;15.65;9.55;;;;;;;;;;5013488;28;20450;-65
2022/03/03 01:03:17;;;;;;;18.17;9.40;;;;;;;;;;5013674;28;20077;-64
2022/03/03 01:05:42;;;;;;;19.83;10.10;;;;;;;;;;5013510;28;20033;-65
2022/03/03 01:08:10;;;;;;;19.92;9.70;;;;;;;;;;5013291;28;20033;-65
2022/03/03 01:10:37;;;;;;;17.23;9.60;;;;;;;;;;5013361;28;20214;-65
2022/03/03 01:13:03;;;;;;;18.27;10.18;;;;;;;;;;5013385;28;20659;-65
2022/03/03 01:15:28;;;;;;;20.98;10.10;;;;;;;;;;5013228;28;20054;-65
2022/03/03 01:17:54;;;;;;;16.50;9.25;;;;;;;;;;5028456;28;20494;-64
2022/03/03 01:20:19;;;;;;;17.70;10.00;;;;;;;;;;5013344;28;20556;-64
2022/03/03 01:22:45;;;;;;;18.73;9.68;;;;;;;;;;5013264;28;20030;-64
2022/03/03 01:25:10;;;;;;;19.17;9.02;;;;;;;;;;5013085;28;20026;-65
2022/03/03 01:27:36;;;;;;;15.98;8.98;;;;;;;;;;5012807;28;20489;-65
2022/03/03 01:30:03;;;;;;;15.88;8.77;;;;;;;;;;5012918;28;20072;-64
2022/03/03 01:32:29;;;;;;;15.65;8.68;;;;;;;;;;5012957;28;20018;-65
2022/03/03 01:34:54;;;;;;;14.90;8.60;;;;;;;;;;5013001;28;20525;-65
2022/03/03 01:37:19;;;;;;;15.32;8.80;;;;;;;;;;5012823;28;20034;-64
2022/03/03 01:39:45;;;;;;;14.82;8.55;;;;;;;;;;5012842;28;20125;-65
2022/03/03 01:42:14;;;;;;;13.02;8.32;;;;;;;;;;5012799;28;20025;-64
2022/03/03 01:44:44;;;;;;;13.70;8.38;;;;;;;;;;5011549;28;20631;-65
2022/03/03 01:47:24;;;;;;;15.87;8.83;;;;;;;;;;5012600;28;20034;-64
2022/03/03 01:49:51;;;;;;;18.20;8.38;;;;;;;;;;5012855;28;20500;-64
2022/03/03 01:52:17;;;;;;;16.40;8.02;;;;;;;;;;5012763;28;20045;-64
2022/03/03 01:54:43;;;;;;;16.45;8.68;;;;;;;;;;5012797;28;20029;-65
2022/03/03 01:57:09;;;;;;;16.55;8.30;;;;;;;;;;5012290;28;20041;-65
2022/03/03 01:59:35;;;;;;;15.93;8.30;;;;;;;;;;5012399;28;20049;-65
2022/03/03 02:02:03;;;;;;;16.67;8.02;;;;;;;;;;5012454;28;20048;-65
2022/03/03 02:04:29;;;;;;;13.63;7.72;;;;;;;;;;5012511;28;20026;-64
2022/03/03 02:06:54;;;;;;;16.00;8.05;;;;;;;;;;5012441;28;20037;-64
2022/03/03 02:09:19;;;;;;;13.35;7.78;;;;;;;;;;5012298;28;20073;-64
2022/03/03 02:11:48;;;;;;;16.83;7.93;;;;;;;;;;5012427;28;20030;-64
2022/03/03 02:14:14;;;;;;;15.10;7.93;;;;;;;;;;5012314;28;20021;-64
2022/03/03 02:16:40;;;;;;;14.02;7.82;;;;;;;;;;5012065;28;20148;-64
2022/03/03 02:19:06;;;;;;;13.90;7.60;;;;;;;;;;5012099;28;20152;-64
2022/03/03 02:21:32;;;;;;;11.57;7.50;;;;;;;;;;5012333;28;20030;-64
2022/03/03 02:23:58;;;;;;;15.07;7.40;;;;;;;;;;5012326;28;20041;-64
2022/03/03 02:26:24;;;;;;;14.60;8.48;;;;;;;;;;5011926;28;20568;-64
2022/03/03 02:28:51;;;;;;;16.02;8.18;;;;;;;;;;5011893;28;20034;-64
2022/03/03 02:31:18;;;;;;;12.43;7.45;;;;;;;;;;5011760;28;20026;-64
2022/03/03 02:33:44;;;;;;;12.93;7.50;;;;;;;;;;5011764;28;20070;-64
2022/03/03 02:36:21;;;;;;;14.63;7.88;;;;;;;;;;5011803;28;20030;-64
2022/03/03 02:38:48;;;;;;;12.00;7.13;;;;;;;;;;5011698;28;20048;-64
2022/03/03 02:41:13;;;;;;;17.17;8.00;;;;;;;;;;5011732;28;20496;-64
2022/03/03 02:43:39;;;;;;;13.50;7.28;;;;;;;;;;5012295;28;20026;-64
2022/03/03 02:46:05;;;;;;;13.00;7.55;;;;;;;;;;5011484;28;20114;-64
2022/03/03 02:48:31;;;;;;;12.18;7.55;;;;;;;;;;5011368;28;20128;-64
2022/03/03 02:50:57;;;;;;;15.35;7.80;;;;;;;;;;5011550;28;20061;-64
2022/03/03 02:53:22;;;;;;;15.25;7.32;;;;;;;;;;5011567;28;20105;-64
2022/03/03 02:55:48;;;;;;;14.13;7.45;;;;;;;;;;5011332;28;20109;-64
2022/03/03 02:58:13;;;;;;;14.10;7.07;;;;;;;;;;5011264;28;20656;-64
2022/03/03 03:00:42;;;;;;;12.35;6.90;;;;;;;;;;5011221;28;20030;-64
2022/03/03 03:03:12;;;;;;;13.73;7.13;;;;;;;;;;5011600;28;20018;-64
2022/03/03 03:05:37;;;;;;;12.88;6.68;;;;;;;;;;5011231;28;20513;-65
2022/03/03 03:08:04;;;;;;;12.70;7.18;;;;;;;;;;5011105;28;20014;-64
2022/03/03 03:10:29;;;;;;;12.02;7.40;;;;;;;;;;5011124;28;20057;-64
2022/03/03 03:12:55;;;;;;;13.60;7.18;;;;;;;;;;5011419;28;20414;-64
2022/03/03 03:15:21;;;;;;;15.95;7.97;;;;;;;;;;5011169;28;20556;-64
2022/03/03 03:17:46;;;;;;;11.80;7.07;;;;;;;;;;5011073;28;20025;-64
2022/03/03 03:20:12;;;;;;;13.00;6.85;;;;;;;;;;5011249;28;20030;-64
2022/03/03 03:22:38;;;;;;;11.98;7.07;;;;;;;;;;5011190;28;20057;-65
2022/03/03 03:25:07;;;;;;;12.23;7.50;;;;;;;;;;5010874;28;20052;-64
2022/03/03 03:27:33;;;;;;;12.10;6.82;;;;;;;;;;5010723;28;20026;-64
2022/03/03 03:29:59;;;;;;;11.50;6.70;;;;;;;;;;5010814;28;20088;-65
2022/03/03 03:32:24;;;;;;;17.65;7.45;;;;;;;;;;5010981;28;20580;-65
2022/03/03 03:34:50;;;;;;;14.30;7.38;;;;;;;;;;5010905;28;20125;-66
2022/03/03 03:37:16;;;;;;;11.23;6.72;;;;;;;;;;5010921;28;20022;-64
2022/03/03 03:39:42;;;;;;;12.25;6.68;;;;;;;;;;5010714;28;20037;-65
2022/03/03 03:42:08;;;;;;;10.95;6.78;;;;;;;;;;5010805;28;20478;-64
2022/03/03 03:44:34;;;;;;;15.48;6.90;;;;;;;;;;5010539;28;20065;-66
2022/03/03 03:46:59;;;;;;;11.63;7.07;;;;;;;;;;5010726;28;20085;-64
2022/03/03 03:49:25;;;;;;;14.30;6.97;;;;;;;;;;5010672;28;20026;-66
2022/03/03 03:51:51;;;;;;;11.63;6.85;;;;;;;;;;5010664;28;20520;-64
2022/03/03 03:54:16;;;;;;;11.75;7.10;;;;;;;;;;5010652;28;20469;-66
2022/03/03 03:56:42;;;;;;;12.52;6.57;;;;;;;;;;5010713;28;20409;-66
2022/03/03 03:59:07;;;;;;;14.02;7.05;;;;;;;;;;5010377;28;20083;-66
2022/03/03 04:01:33;;;;;;;13.95;7.15;;;;;;;;;;5010323;28;20037;-65
2022/03/03 04:03:58;;;;;;;13.57;7.25;;;;;;;;;;5010658;28;20033;-65
2022/03/03 04:06:24;;;;;;;12.20;6.90;;;;;;;;;;5010502;28;20026;-66
2022/03/03 04:08:49;;;;;;;13.32;7.05;;;;;;;;;;5012084;28;20034;-66
2022/03/03 04:11:15;;;;;;;16.45;7.05;;;;;;;;;;5014657;28;20033;-66
2022/03/03 04:13:40;;;;;;;12.48;6.80;;;;;;;;;;5014510;28;20030;-66
2022/03/03 04:16:05;;;;;;;12.43;7.32;;;;;;;;;;5014520;28;20141;-65
2022/03/03 04:18:32;;;;;;;12.07;7.00;;;;;;;;;;5014514;28;20113;-65
2022/03/03 04:20:57;;;;;;;14.43;7.00;;;;;;;;;;5014397;28;20116;-65
2022/03/03 04:23:22;;;;;;;16.70;7.30;;;;;;;;;;5014314;28;20054;-65
2022/03/03 04:25:48;;;;;;;13.52;7.00;;;;;;;;;;5014066;28;20382;-65
2022/03/03 04:28:14;;;;;;;12.65;7.10;;;;;;;;;;5014077;28;20025;-65
2022/03/03 04:30:39;;;;;;;12.18;7.10;;;;;;;;;;5014166;28;20362;-64
2022/03/03 04:33:05;;;;;;;12.80;6.88;;;;;;;;;;5014178;28;20038;-65
2022/03/03 04:35:30;;;;;;;15.68;7.38;;;;;;;;;;5012947;28;20804;-66
2022/03/03 04:37:57;;;;;;;13.80;7.10;;;;;;;;;;5013798;28;20524;-65
2022/03/03 04:40:23;;;;;;;14.02;6.75;;;;;;;;;;5013930;28;20034;-65
2022/03/03 04:42:51;;;;;;;18.45;7.72;;;;;;;;;;5013865;28;20037;-65
2022/03/03 04:45:17;;;;;;;11.02;6.68;;;;;;;;;;5013301;28;20033;-65
2022/03/03 04:47:43;;;;;;;11.80;6.80;;;;;;;;;;5013145;28;20398;-65
2022/03/03 04:50:09;;;;;;;14.23;7.00;;;;;;;;;;5013518;28;20022;-65
2022/03/03 04:52:36;;;;;;;12.82;6.80;;;;;;;;;;5013790;28;20038;-65
2022/03/03 04:55:02;;;;;;;13.18;6.97;;;;;;;;;;5013688;28;20029;-65
2022/03/03 04:57:28;;;;;;;16.75;7.25;;;;;;;;;;5012992;28;20026;-65
2022/03/03 04:59:53;;;;;;;13.13;6.88;;;;;;;;;;5013054;28;20164;-65
2022/03/03 05:02:19;;;;;;;12.85;6.90;;;;;;;;;;5013647;28;20029;-65
2022/03/03 05:04:44;;;;;;;12.45;7.20;;;;;;;;;;5013528;28;20026;-65
2022/03/03 05:07:10;;;;;;;13.75;7.10;;;;;;;;;;5013511;28;20033;-65
2022/03/03 05:09:35;;;;;;;14.57;7.00;;;;;;;;;;5013812;28;20398;-65
2022/03/03 05:12:01;;;;;;;11.73;7.13;;;;;;;;;;5013445;28;20025;-65
2022/03/03 05:14:27;;;;;;;12.10;7.07;;;;;;;;;;5013342;28;20030;-65
2022/03/03 05:16:52;;;;;;;14.23;7.10;;;;;;;;;;5013169;28;20402;-65
2022/03/03 05:19:17;;;;;;;12.68;6.60;;;;;;;;;;5013064;28;20466;-65
2022/03/03 05:21:43;;;;;;;13.20;6.53;;;;;;;;;;5013378;28;20034;-65
2022/03/03 05:24:08;;;;;;;13.40;6.72;;;;;;;;;;5013328;28;20544;-65
2022/03/03 05:26:34;;;;;;;10.85;6.47;;;;;;;;;;5013109;28;20468;-66
2022/03/03 05:29:00;;;;;;;16.50;6.55;;;;;;;;;;5013190;28;20030;-65
2022/03/03 05:31:26;;;;;;;12.00;6.10;;;;;;;;;;5012900;28;20026;-65
2022/03/03 05:33:51;;;;;;;11.73;6.05;;;;;;;;;;5012746;28;20042;-65
2022/03/03 05:36:17;;;;;;;15.43;6.15;;;;;;;;;;5012922;28;20485;-65
2022/03/03 05:38:43;;;;;;;15.70;6.05;;;;;;;;;;5012796;28;20054;-65
2022/03/03 05:41:08;;;;;;;9.95;6.03;;;;;;;;;;5013179;28;20477;-65
2022/03/03 05:43:35;;;;;;;10.95;6.22;;;;;;;;;;5013138;28;20111;-65
2022/03/03 05:46:02;;;;;;;11.30;6.32;;;;;;;;;;5012675;28;20091;-65
2022/03/03 05:48:27;;;;;;;11.75;6.15;;;;;;;;;;5013062;28;20076;-65
2022/03/03 05:50:54;;;;;;;11.98;6.40;;;;;;;;;;5012582;28;20022;-65
2022/03/03 05:53:20;;;;;;;14.07;6.60;;;;;;;;;;5012841;28;20076;-65
2022/03/03 05:55:52;;;;;;;13.10;7.00;;;;;;;;;;5012739;28;20026;-65
2022/03/03 05:58:20;;;;;;;14.15;6.88;;;;;;;;;;5012563;28;20030;-65
2022/03/03 06:00:48;;;;;;;14.38;5.88;;;;;;;;;;5012451;28;20034;-65
2022/03/03 06:03:16;;;;;;;12.00;6.88;;;;;;;;;;5012492;28;20034;-65
2022/03/03 06:05:48;;;;;;;10.52;6.50;;;;;;;;;;5012261;28;20021;-65
2022/03/03 06:08:37;;;;;;;12.32;6.70;;;;;;;;;;5012354;28;20636;-65
2022/03/03 06:11:04;;;;;;;14.52;7.32;;;;;;;;;;5012342;28;20079;-65
2022/03/03 06:13:36;;;;;;;16.13;7.38;;;;;;;;;;5012367;28;20469;-64
2022/03/03 06:16:03;;;;;;;14.38;6.50;;;;;;;;;;5012251;28;20022;-65
2022/03/03 06:18:32;;;;;;;13.68;6.78;;;;;;;;;;5012405;28;20116;-65
2022/03/03 06:20:58;;;;;;;15.18;7.47;;;;;;;;;;5012181;28;20053;-64
2022/03/03 06:23:24;;;;;;;12.50;6.82;;;;;;;;;;5012123;28;20108;-65
2022/03/03 06:26:00;;;;;;;10.60;7.15;;;;;;;;;;5011815;28;20106;-65
2022/03/03 06:28:27;;;;;;;15.25;7.00;;;;;;;;;;5012023;28;20527;-65
2022/03/03 06:30:52;;;;;;;13.85;7.28;;;;;;;;;;5011231;28;20097;-65
2022/03/03 06:33:18;;;;;;;13.82;7.50;;;;;;;;;;5011877;28;20128;-65
2022/03/03 06:35:43;;;;;;;14.70;7.38;;;;;;;;;;5011961;28;20029;-65
2022/03/03 06:38:08;;;;;;;13.00;7.22;;;;;;;;;;5011912;28;20018;-65
2022/03/03 06:40:35;;;;;;;17.75;7.65;;;;;;;;;;5012875;28;20452;-66
2022/03/03 06:43:01;;;;;;;17.27;7.30;;;;;;;;;;5014506;28;20477;-66
2022/03/03 06:45:28;;;;;;;14.82;7.07;;;;;;;;;;5009749;28;20380;-66
2022/03/03 06:47:56;;;;;;;16.50;7.32;;;;;;;;;;5009746;28;20037;-66
2022/03/03 06:50:21;;;;;;;20.60;7.75;;;;;;;;;;5009616;28;20045;-66
2022/03/03 06:52:48;;;;;;;14.18;6.82;;;;;;;;;;5009986;28;20062;-66
2022/03/03 06:55:19;;;;;;;13.32;6.38;;;;;;;;;;5009697;28;20026;-66
2022/03/03 06:57:46;;;;;;;10.65;6.80;;;;;;;;;;5009774;28;20037;-65
2022/03/03 07:00:13;;;;;;;17.52;6.72;;;;;;;;;;5010417;28;20109;-66
2022/03/03 07:02:38;;;;;;;14.07;6.70;;;;;;;;;;5011291;28;20026;-65
2022/03/03 07:05:04;;;;;;;12.98;6.75;;;;;;;;;;5024862;28;20041;-65
2022/03/03 07:07:32;;;;;;;16.88;6.35;;;;;;;;;;5008428;28;20026;-67
2022/03/03 07:09:58;;;;;;;18.35;6.70;;;;;;;;;;5007974;28;20537;-66
2022/03/03 07:12:28;;;;;;;14.77;6.10;;;;;;;;;;4989623;28;20022;-66
2022/03/03 07:14:53;;;;;;;12.70;6.43;;;;;;;;;;4989940;28;20030;-65
2022/03/03 07:17:50;;;;;;;13.32;6.55;;;;;;;;;;4990460;28;20028;-65
2022/03/03 07:20:45;;;;;;;12.32;6.40;;;;;;;;;;4991189;28;20042;-65
2022/03/03 07:23:36;;;;;;;15.48;6.80;;;;;;;;;;4987605;28;20146;-65
2022/03/03 07:26:04;;;;;;;15.80;6.85;;;;;;;;;;4991320;28;20029;-65
2022/03/03 07:28:31;;;;;;;16.30;6.90;;;;;;;;;;4995185;28;20560;-65
2022/03/03 07:31:00;;;;;;;12.52;6.88;;;;;;;;;;4991011;28;20101;-65
2022/03/03 07:33:48;;;;;;;14.05;7.20;;;;;;;;;;4991050;28;20509;-65
2022/03/03 07:36:18;;;;;;;18.13;7.97;;;;;;;;;;4991371;28;20027;-65
2022/03/03 07:38:56;;;;;;;13.85;8.18;;;;;;;;;;4991203;28;20119;-65
2022/03/03 07:41:22;;;;;;;121.63;51.22;;;;;;;;;;4991010;28;20026;-65
2022/03/03 07:43:49;;;;;;;30.08;14.88;;;;;;;;;;4990331;28;20023;-65
2022/03/03 07:46:15;;;;;;;19.05;10.00;;;;;;;;;;4990853;28;20022;-65
2022/03/03 07:48:46;;;;;;;13.15;7.75;;;;;;;;;;4991053;28;20030;-65
2022/03/03 07:51:13;;;;;;;16.58;8.48;;;;;;;;;;4990837;28;20018;-65
2022/03/03 07:53:39;;;;;;;21.35;9.30;;;;;;;;;;4990979;28;20180;-66
2022/03/03 07:56:07;;;;;;;19.10;7.70;;;;;;;;;;4991465;28;20482;-65
2022/03/03 07:58:37;;;;;;;16.33;6.95;;;;;;;;;;4995320;28;20030;-65
2022/03/03 08:01:05;;;;;;;14.80;8.98;;;;;;;;;;5000833;28;20038;-65
2022/03/03 08:03:31;;;;;;;15.63;6.78;;;;;;;;;;5000643;28;20038;-65
2022/03/03 08:05:58;;;;;;;16.77;7.28;;;;;;;;;;5001071;28;20098;-65
2022/03/03 08:08:28;;;;;;;12.32;7.30;;;;;;;;;;4998901;28;20492;-64
2022/03/03 08:11:05;;;;;;;11.98;6.43;;;;;;;;;;5000330;28;20035;-65
2022/03/03 08:13:31;;;;;;;14.45;6.80;;;;;;;;;;5000474;28;20092;-65
2022/03/03 08:15:57;;;;;;;13.30;6.05;;;;;;;;;;5000725;28;20209;-64
2022/03/03 08:18:35;;;;;;;15.02;5.97;;;;;;;;;;5000455;28;20034;-65
2022/03/03 08:21:05;;;;;;;14.95;5.65;;;;;;;;;;5000230;28;20035;-66
2022/03/03 08:23:31;;;;;;;11.82;5.60;;;;;;;;;;5000263;28;20061;-66
2022/03/03 08:25:58;;;;;;;11.68;5.72;;;;;;;;;;4999977;28;20030;-65
2022/03/03 08:28:24;;;;;;;10.20;5.45;;;;;;;;;;5000252;28;20018;-65
2022/03/03 08:30:59;;;;;;;14.35;5.95;;;;;;;;;;5001068;28;20033;-65
2022/03/03 08:33:43;;;;;;;11.70;5.72;;;;;;;;;;5000092;28;20047;-65
2022/03/03 08:36:18;;;;;;;11.15;5.22;;;;;;;;;;5000618;28;20030;-66
2022/03/03 08:38:49;;;;;;;9.23;4.97;;;;;;;;;;5000711;28;20073;-66
2022/03/03 08:41:19;;;;;;;12.13;5.43;;;;;;;;;;5000084;28;20029;-66
2022/03/03 08:43:49;;;;;;;15.98;5.78;;;;;;;;;;4999894;28;20214;-65
2022/03/03 08:46:20;;;;;;;17.95;5.85;;;;;;;;;;5000496;28;20038;-66
2022/03/03 08:48:47;;;;;;;;;;;;;;;;;;5000767;28;20060;-65
2022/03/03 08:51:15;;;;;;;11.05;5.13;;;;;;;;;;5000029;28;19948;-65
2022/03/03 08:53:41;;;;;;;12.82;5.75;;;;;;;;;;5000524;28;20042;-66
2022/03/03 08:56:06;;;;;;;14.75;5.50;;;;;;;;;;5003341;28;20205;-65
2022/03/03 08:58:31;;;;;;;17.88;5.85;;;;;;;;;;5003613;28;20026;-65
2022/03/03 09:00:57;;;;;;;17.10;6.10;;;;;;;;;;5003572;28;20022;-65
2022/03/03 09:03:24;;;;;;;14.82;6.35;;;;;;;;;;5004135;28;20026;-65
2022/03/03 09:05:50;;;;;;;12.70;5.70;;;;;;;;;;5004487;28;20033;-65
2022/03/03 09:08:15;;;;;;;13.88;5.68;;;;;;;;;;5003480;28;20097;-65
2022/03/03 09:10:41;;;;;;;11.75;5.88;;;;;;;;;;5003635;28;20218;-65
2022/03/03 09:13:06;;;;;;;14.57;6.00;;;;;;;;;;5003115;28;20060;-65
2022/03/03 09:15:33;;;;;;;12.02;5.55;;;;;;;;;;5003352;28;20030;-65
2022/03/03 09:18:00;;;;;;;9.82;5.13;;;;;;;;;;5004044;28;20030;-65
2022/03/03 09:20:26;;;;;;;16.20;6.07;;;;;;;;;;5003085;28;20049;-65
2022/03/03 09:22:52;;;;;;;13.85;5.57;;;;;;;;;;5003213;28;20022;-65
2022/03/03 09:25:18;;;;;;;12.63;5.28;;;;;;;;;;5003797;28;20435;-64
2022/03/03 09:27:43;;;;;;;11.38;5.00;;;;;;;;;;5004411;28;20034;-65
2022/03/03 09:30:10;;;;;;;13.32;4.78;;;;;;;;;;5002983;28;20027;-66
2022/03/03 09:32:36;;;;;;;10.32;4.78;;;;;;;;;;5003576;28;20325;-64
2022/03/03 09:35:03;;;;;;;7.97;4.25;;;;;;;;;;5003994;28;20030;-70
2022/03/03 09:37:29;;;;;;;9.82;5.57;;;;;;;;;;5003757;28;20309;-66
2022/03/03 09:39:54;;;;;;;11.77;5.20;;;;;;;;;;5018826;28;20034;-68
2022/03/03 09:42:20;;;;;;;12.80;5.15;;;;;;;;;;5018912;28;20040;-71
2022/03/03 09:44:46;;;;;;;11.48;5.20;;;;;;;;;;5023461;28;20029;-69
2022/03/03 09:47:12;;;;;;;10.30;4.80;;;;;;;;;;5023106;28;20253;-63
2022/03/03 09:49:39;;;;;;;10.93;4.78;;;;;;;;;;5023407;28;20317;-63
2022/03/03 09:52:15;;;;;;;20.70;5.10;;;;;;;;;;5023229;28;20029;-63
2022/03/03 09:54:47;;;;;;;11.52;5.18;;;;;;;;;;5023316;28;20033;-63
2022/03/03 09:57:15;;;;;;;11.00;5.20;;;;;;;;;;5022124;28;20037;-62
2022/03/03 09:59:41;;;;;;;13.10;5.35;;;;;;;;;;5022326;28;20092;-63
2022/03/03 10:02:07;;;;;;;10.48;5.20;;;;;;;;;;5022348;28;20023;-64
2022/03/03 10:04:34;;;;;;;11.32;4.68;;;;;;;;;;5022072;28;20387;-64
2022/03/03 10:07:05;;;;;;;11.07;5.00;;;;;;;;;;5021589;28;20045;-71
2022/03/03 10:09:31;;;;;;;10.30;4.65;;;;;;;;;;5021835;28;20018;-64
2022/03/03 10:12:04;;;;;;;9.25;4.70;;;;;;;;;;5021737;28;20022;-67
2022/03/03 10:14:32;;;;;;;11.10;4.88;;;;;;;;;;5018685;28;20030;-62
2022/03/03 10:16:58;;;;;;;9.30;4.85;;;;;;;;;;5021536;28;20306;-67
2022/03/03 10:19:24;;;;;;;10.05;5.00;;;;;;;;;;5020595;28;20026;-65
2022/03/03 10:21:49;;;;;;;10.40;4.68;;;;;;;;;;5021938;28;20089;-66
2022/03/03 10:24:35;;;;;;;11.70;4.90;;;;;;;;;;5022766;28;20218;-63
2022/03/03 10:27:04;;;;;;;11.00;4.85;;;;;;;;;;5022066;28;20065;-63
2022/03/03 10:29:30;;;;;;;11.18;5.03;;;;;;;;;;5020803;28;20085;-64
2022/03/03 10:31:57;;;;;;;10.75;4.88;;;;;;;;;;5021583;28;20034;-72
2022/03/03 10:34:27;;;;;;;12.45;5.15;;;;;;;;;;5022546;28;20330;-64
2022/03/03 10:36:57;;;;;;;8.52;4.93;;;;;;;;;;5022493;28;20022;-63
2022/03/03 10:39:23;;;;;;;11.68;4.90;;;;;;;;;;5021399;28;20105;-64
2022/03/03 10:41:54;;;;;;;11.13;4.90;;;;;;;;;;5021503;28;20029;-63
2022/03/03 10:44:31;;;;;;;10.35;5.47;;;;;;;;;;5021145;28;20364;-69
2022/03/03 10:47:09;;;;;;;11.55;5.32;;;;;;;;;;5021567;28;20033;-64
2022/03/03 10:49:41;;;;;;;12.23;5.72;;;;;;;;;;5021647;28;20325;-64
2022/03/03 10:52:22;;;;;;;14.32;6.45;;;;;;;;;;5021292;28;20427;-64
2022/03/03 10:55:05;;;;;;;13.63;5.78;;;;;;;;;;5021324;28;20030;-64
2022/03/03 10:57:40;;;;;;;14.63;5.55;;;;;;;;;;5020937;28;20037;-64
2022/03/03 11:00:09;;;;;;;7.95;4.68;;;;;;;;;;5020732;28;20026;-64
2022/03/03 11:02:35;;;;;;;10.75;5.10;;;;;;;;;;5021493;28;20029;-64
2022/03/03 11:05:01;;;;;;;10.25;4.85;;;;;;;;;;5021397;28;20397;-64
2022/03/03 11:07:27;;;;;;;10.55;4.47;;;;;;;;;;5020945;28;20045;-61
2022/03/03 11:09:53;;;;;;;9.38;4.50;;;;;;;;;;5021512;28;20032;-64
2022/03/03 11:12:19;;;;;;;9.35;4.88;;;;;;;;;;5020813;28;20102;-61
2022/03/03 11:14:46;;;;;;;11.18;4.22;;;;;;;;;;5021133;28;20030;-61
2022/03/03 11:17:12;;;;;;;8.63;4.50;;;;;;;;;;5021016;28;20029;-64
2022/03/03 11:19:41;;;;;;;11.18;4.70;;;;;;;;;;5021409;28;20029;-70
2022/03/03 11:22:07;;;;;;;8.27;4.72;;;;;;;;;;5020697;28;20030;-63
2022/03/03 11:24:37;;;;;;;12.38;5.00;;;;;;;;;;5020954;28;20053;-69
2022/03/03 11:27:04;;;;;;;10.75;4.78;;;;;;;;;;5021122;28;20060;-64
2022/03/03 11:29:32;;;;;;;19.60;5.30;;;;;;;;;;5021048;28;20309;-62
2022/03/03 11:32:15;;;;;;;8.88;4.47;;;;;;;;;;5020501;28;20359;-72
2022/03/03 11:34:44;;;;;;;8.98;4.47;;;;;;;;;;5020595;28;20192;-71
2022/03/03 11:37:09;;;;;;;7.80;4.22;;;;;;;;;;5020756;28;20370;-72
2022/03/03 11:39:35;;;;;;;10.35;4.25;;;;;;;;;;5019753;28;20023;-73
2022/03/03 11:42:20;;;;;;;9.50;4.30;;;;;;;;;;5020613;28;20022;-70
2022/03/03 11:44:47;;;;;;;9.50;3.78;;;;;;;;;;5020545;28;20038;-71
2022/03/03 11:47:28;;;;;;;9.75;4.22;;;;;;;;;;5020545;28;20044;-73
2022/03/03 11:50:34;;;;;;;11.80;4.07;;;;;;;;;;5020752;28;20025;-71
2022/03/03 11:52:59;;;;;;;6.57;3.70;;;;;;;;;;5020450;28;20033;-72
2022/03/03 11:55:44;;;;;;;9.10;4.15;;;;;;;;;;5020158;28;20026;-72
2022/03/03 11:58:28;;;;;;;7.85;3.90;;;;;;;;;;5020377;28;20033;-63
2022/03/03 12:01:05;;;;;;;7.20;3.65;;;;;;;;;;5020049;28;20022;-61
2022/03/03 12:03:32;;;;;;;12.95;4.45;;;;;;;;;;5019605;28;20026;-61
2022/03/03 12:06:12;;;;;;;8.95;4.15;;;;;;;;;;5020306;28;20033;-71
2022/03/03 12:08:44;;;;;;;10.35;4.43;;;;;;;;;;5020658;28;20045;-62
2022/03/03 12:11:11;;;;;;;9.68;4.20;;;;;;;;;;5020777;28;20029;-70
2022/03/03 12:13:40;;;;;;;12.52;4.13;;;;;;;;;;5020280;28;20218;-72
2022/03/03 12:16:14;;;;;;;9.90;4.20;;;;;;;;;;5019371;28;20089;-73
2022/03/03 12:18:41;;;;;;;9.57;4.10;;;;;;;;;;5019969;28;20064;-71
2022/03/03 12:21:23;;;;;;;9.73;4.20;;;;;;;;;;5019343;28;20245;-71
2022/03/03 12:23:49;;;;;;;6.90;4.10;;;;;;;;;;5020363;28;20053;-73
2022/03/03 12:26:15;;;;;;;11.18;4.80;;;;;;;;;;5020045;28;20021;-71
2022/03/03 12:28:46;;;;;;;7.95;4.60;;;;;;;;;;5020092;28;20026;-68
2022/03/03 12:31:24;;;;;;;9.05;4.72;;;;;;;;;;5023476;28;20025;-71
2022/03/03 12:33:58;;;;;;;10.15;5.25;;;;;;;;;;5024123;28;20042;-66
2022/03/03 12:36:24;;;;;;;10.05;5.18;;;;;;;;;;5024077;28;20022;-70
2022/03/03 12:38:52;;;;;;;9.60;5.45;;;;;;;;;;5023939;28;20153;-73
2022/03/03 12:41:21;;;;;;;12.40;5.68;;;;;;;;;;5023175;28;20264;-73
2022/03/03 12:43:46;;;;;;;9.25;5.70;;;;;;;;;;5024118;28;20310;-72
2022/03/03 12:46:12;;;;;;;10.57;5.80;;;;;;;;;;5023639;28;20026;-64
2022/03/03 12:48:39;;;;;;;7.60;5.63;;;;;;;;;;5024090;28;20049;-64
2022/03/03 12:51:07;;;;;;;13.00;5.95;;;;;;;;;;5022407;28;20064;-73
2022/03/03 12:53:37;;;;;;;12.00;6.30;;;;;;;;;;5023399;28;20034;-64
2022/03/03 12:56:04;;;;;;;13.52;6.32;;;;;;;;;;5023786;28;20041;-72
2022/03/03 12:58:32;;;;;;;10.73;6.07;;;;;;;;;;5023232;28;20033;-65
2022/03/03 13:00:58;;;;;;;11.02;6.55;;;;;;;;;;5022030;28;20311;-64
2022/03/03 13:03:26;;;;;;;11.55;6.78;;;;;;;;;;5023418;28;20225;-65
2022/03/03 13:05:57;;;;;;;15.20;7.18;;;;;;;;;;5019933;28;20034;-65
2022/03/03 13:08:23;;;;;;;14.25;7.07;;;;;;;;;;5013188;28;20068;-62
2022/03/03 13:10:51;;;;;;;14.25;6.90;;;;;;;;;;5013155;28;20026;-63
2022/03/03 13:13:17;;;;;;;13.85;7.82;;;;;;;;;;5021688;28;20552;-71
2022/03/03 13:15:43;;;;;;;16.10;7.47;;;;;;;;;;5022498;28;20018;-74
2022/03/03 13:18:21;;;;;;;11.38;7.18;;;;;;;;;;5022731;28;20056;-64
2022/03/03 13:20:55;;;;;;;11.57;6.53;;;;;;;;;;5022556;28;20030;-64
2022/03/03 13:23:22;;;;;;;21.27;14.82;;;;;;;;;;5022451;28;20033;-65
2022/03/03 13:26:04;;;;;;;14.15;7.53;;;;;;;;;;5022175;28;20329;-64
2022/03/03 13:28:30;;;;;;;25.75;17.23;;;;;;;;;;5022560;28;20026;-64
2022/03/03 13:31:02;;;;;;;24.63;18.13;;;;;;;;;;5022858;28;20106;-65
2022/03/03 13:33:46;;;;;;;18.73;10.50;;;;;;;;;;5021499;28;20053;-66
2022/03/03 13:36:18;;;;;;;27.85;23.17;;;;;;;;;;5022527;28;20466;-67
2022/03/03 13:38:45;;;;;;;13.52;8.27;;;;;;;;;;5022691;28;20451;-68
2022/03/03 13:41:35;;;;;;;17.10;12.45;;;;;;;;;;5021491;28;20026;-68
2022/03/03 13:44:13;;;;;;;;;;;;;;;;;;5022991;28;20026;-69
2022/03/03 13:47:11;;;;;;;14.20;8.07;;;;;;;;;;5022535;28;19921;-69
2022/03/03 13:49:39;;;;;;;14.10;7.60;;;;;;;;;;5019373;28;20038;-67
2022/03/03 13:52:11;;;;;;;16.35;9.20;;;;;;;;;;5022178;28;20033;-67
2022/03/03 13:54:48;;;;;;;15.90;8.40;;;;;;;;;;5022647;28;20032;-67
2022/03/03 13:57:45;;;;;;;17.42;8.52;;;;;;;;;;5022775;28;20041;-70
2022/03/03 14:00:35;;;;;;;24.17;16.05;;;;;;;;;;5022528;28;20386;-69
2022/03/03 14:03:12;;;;;;;12.57;7.95;;;;;;;;;;5021937;28;20225;-68
2022/03/03 14:05:47;;;;;;;16.88;8.45;;;;;;;;;;5022013;28;20108;-70
2022/03/03 14:08:33;;;;;;;15.52;7.80;;;;;;;;;;5022137;28;20030;-66
2022/03/03 14:11:00;;;;;;;12.38;7.97;;;;;;;;;;5021767;28;20058;-68
2022/03/03 14:13:28;;;;;;;13.50;8.00;;;;;;;;;;5022207;28;20026;-70
2022/03/03 14:15:56;;;;;;;14.43;8.27;;;;;;;;;;5022069;28;20034;-69
2022/03/03 14:18:24;;;;;;;12.65;8.02;;;;;;;;;;5022049;28;20080;-67
2022/03/03 14:20:51;;;;;;;16.15;9.30;;;;;;;;;;5021762;28;20034;-67
2022/03/03 14:23:21;;;;;;;13.90;8.50;;;;;;;;;;5021328;28;20340;-67
2022/03/03 14:25:46;;;;;;;12.52;7.60;;;;;;;;;;5021782;28;20029;-69
2022/03/03 14:28:12;;;;;;;11.90;7.40;;;;;;;;;;5021940;28;20034;-68
2022/03/03 14:30:37;;;;;;;10.88;7.78;;;;;;;;;;5021137;28;20225;-68
2022/03/03 14:33:03;;;;;;;15.85;7.32;;;;;;;;;;5021146;28;20077;-68
2022/03/03 14:35:28;;;;;;;12.82;7.68;;;;;;;;;;5021339;28;20072;-69
2022/03/03 14:37:54;;;;;;;12.20;7.70;;;;;;;;;;5021284;28;20026;-70